Time;durP1;ratioP1;P1;durP2;ratioP2;P2;SDS_P1;SDS_P2;PMS_P1;PMS_P2;Temp;Humidity;BMP_temperature;BMP_pressure;BME280_temperature;BME280_humidity;BME280_pressure;Samples;Min_cycle;Max_cycle;Signal;HPM_P1;HPM_P2
2021/08/16 00:01:48;;;;;;;11.95;7.82;;;;;;;19.94;100.00;99866.22;5095892;28;20146;-64
2021/08/16 00:04:32;;;;;;;14.20;7.53;;;;;;;19.99;100.00;99861.00;5094667;28;20511;-64
2021/08/16 00:07:17;;;;;;;13.27;8.02;;;;;;;20.03;100.00;99853.28;5096067;28;20063;-63
2021/08/16 00:10:00;;;;;;;9.88;7.22;;;;;;;20.02;100.00;99854.34;5095218;28;20455;-64
2021/08/16 00:12:44;;;;;;;9.77;8.00;;;;;;;20.00;100.00;99851.00;5080675;28;20469;-64
2021/08/16 00:15:29;;;;;;;14.32;7.30;;;;;;;19.95;100.00;99850.81;5095516;28;20126;-65
2021/08/16 00:18:13;;;;;;;11.27;8.23;;;;;;;19.95;100.00;99851.66;5094838;28;20067;-65
2021/08/16 00:20:57;;;;;;;;;;;;;;;19.95;100.00;99845.41;5095288;28;20146;-64
2021/08/16 00:23:41;;;;;;;16.00;9.67;;;;;;;19.92;100.00;99846.66;5094297;28;19923;-65
2021/08/16 00:26:25;;;;;;;18.50;9.45;;;;;;;19.92;100.00;99840.44;5095422;28;20051;-64
2021/08/16 00:29:09;;;;;;;11.18;8.18;;;;;;;19.96;100.00;99836.22;5094909;28;20113;-64
2021/08/16 00:31:53;;;;;;;9.35;8.25;;;;;;;19.99;100.00;99839.34;5094471;28;20098;-65
2021/08/16 00:34:37;;;;;;;13.77;8.88;;;;;;;20.02;100.00;99844.31;5094570;28;20124;-64
2021/08/16 00:37:21;;;;;;;12.60;8.27;;;;;;;20.01;100.00;99849.97;5094475;28;20063;-64
2021/08/16 00:40:05;;;;;;;10.98;8.02;;;;;;;19.98;100.00;99842.25;5094369;28;20051;-65
2021/08/16 00:42:49;;;;;;;10.00;7.50;;;;;;;19.97;100.00;99844.16;5080074;28;20512;-64
2021/08/16 00:45:33;;;;;;;11.02;7.95;;;;;;;19.92;100.00;99846.66;5095186;28;20405;-65
2021/08/16 00:48:17;;;;;;;14.02;9.23;;;;;;;19.91;100.00;99842.28;5094162;28;20127;-64
2021/08/16 00:51:00;;;;;;;16.73;9.95;;;;;;;19.89;100.00;99836.25;5093914;28;20412;-64
2021/08/16 00:53:45;;;;;;;11.77;9.30;;;;;;;19.93;100.00;99834.81;5094301;28;20047;-64
2021/08/16 00:56:30;;;;;;;15.85;9.05;;;;;;;19.98;100.00;99836.84;5093768;28;20542;-65
2021/08/16 00:59:16;;;;;;;14.25;10.15;;;;;;;20.04;100.00;99846.84;5094062;28;20047;-65
2021/08/16 01:02:00;;;;;;;18.48;10.38;;;;;;;20.06;100.00;99842.91;5108180;28;20046;-67
2021/08/16 01:04:44;;;;;;;13.23;10.27;;;;;;;20.17;100.00;99833.25;5094681;28;20480;-65
2021/08/16 01:07:28;;;;;;;18.15;11.50;;;;;;;20.19;100.00;99837.41;5093892;28;20054;-64
2021/08/16 01:10:14;;;;;;;15.40;11.65;;;;;;;20.29;100.00;99837.78;5094552;28;20047;-65
2021/08/16 01:12:58;;;;;;;15.43;12.02;;;;;;;20.34;100.00;99831.72;5094477;28;20554;-64
2021/08/16 01:16:00;;;;;;;16.13;11.68;;;;;;;20.43;100.00;99839.34;5094669;28;20412;-64
2021/08/16 01:18:45;;;;;;;22.00;12.55;;;;;;;20.47;100.00;99837.88;5094673;28;20059;-65
2021/08/16 01:21:29;;;;;;;18.65;12.60;;;;;;;20.51;100.00;99849.94;5093591;28;20182;-64
2021/08/16 01:24:13;;;;;;;16.88;12.18;;;;;;;20.51;100.00;99847.22;5093168;28;20059;-64
2021/08/16 01:27:08;;;;;;;22.00;12.43;;;;;;;20.51;100.00;99851.81;5093507;28;20043;-64
2021/08/16 01:29:52;;;;;;;22.20;13.73;;;;;;;20.53;100.00;99849.72;5108142;28;20117;-64
2021/08/16 01:32:37;;;;;;;21.13;14.15;;;;;;;20.58;100.00;99850.72;5107789;28;20157;-63
2021/08/16 01:35:22;;;;;;;20.77;13.60;;;;;;;20.60;100.00;99855.94;5093267;28;20175;-65
2021/08/16 01:38:06;;;;;;;19.25;13.43;;;;;;;20.66;100.00;99857.75;5094041;28;20098;-65
2021/08/16 01:40:50;;;;;;;18.70;13.48;;;;;;;20.72;100.00;99865.84;5107918;28;20089;-64
2021/08/16 01:43:34;;;;;;;19.83;14.07;;;;;;;20.76;100.00;99868.94;5093067;28;20054;-64
2021/08/16 01:46:19;;;;;;;18.42;13.40;;;;;;;20.82;100.00;99865.38;5094189;28;20097;-64
2021/08/16 01:49:03;;;;;;;18.50;13.75;;;;;;;20.86;100.00;99863.91;5107509;28;20048;-65
2021/08/16 01:51:47;;;;;;;19.35;12.70;;;;;;;20.87;100.00;99870.97;5094121;28;20051;-64
2021/08/16 01:54:31;;;;;;;22.42;12.63;;;;;;;20.85;100.00;99860.38;5078645;28;20603;-64
2021/08/16 01:57:15;;;;;;;18.48;12.40;;;;;;;20.82;100.00;99859.94;5092995;28;20085;-64
2021/08/16 01:59:59;;;;;;;15.98;11.90;;;;;;;20.82;100.00;99860.75;5094203;28;20486;-65
2021/08/16 02:02:43;;;;;;;15.82;11.40;;;;;;;20.82;100.00;99865.38;5092933;28;20098;-64
2021/08/16 02:05:27;;;;;;;13.30;10.75;;;;;;;20.83;100.00;99872.44;5093647;28;20503;-65
2021/08/16 02:08:11;;;;;;;18.77;11.65;;;;;;;20.81;100.00;99874.56;5093816;28;20131;-64
2021/08/16 02:10:55;;;;;;;15.85;10.90;;;;;;;20.82;100.00;99878.91;5093522;28;20051;-64
2021/08/16 02:13:39;;;;;;;21.05;11.15;;;;;;;20.78;100.00;99886.66;5106891;28;20073;-64
2021/08/16 02:16:22;;;;;;;15.13;10.05;;;;;;;20.79;100.00;99880.19;5092446;28;20480;-64
2021/08/16 02:19:07;;;;;;;16.73;10.07;;;;;;;20.75;100.00;99887.09;5092682;28;20042;-64
2021/08/16 02:21:51;;;;;;;17.63;10.85;;;;;;;20.68;100.00;99891.72;5093338;28;20070;-64
2021/08/16 02:24:34;;;;;;;13.30;9.63;;;;;;;20.70;100.00;99888.75;5093232;28;20047;-65
2021/08/16 02:27:18;;;;;;;17.35;10.30;;;;;;;20.69;100.00;99892.53;5093285;28;20054;-65
2021/08/16 02:30:03;;;;;;;14.18;10.02;;;;;;;20.65;100.00;99896.72;5093579;28;20177;-65
2021/08/16 02:32:48;;;;;;;15.05;9.30;;;;;;;20.58;100.00;99901.34;5093668;28;20050;-65
2021/08/16 02:35:32;;;;;;;12.73;9.52;;;;;;;20.56;100.00;99917.81;5092187;28;20532;-65
2021/08/16 02:38:16;;;;;;;16.98;9.80;;;;;;;20.57;100.00;99913.22;5093217;28;20508;-64
2021/08/16 02:41:00;;;;;;;14.82;10.02;;;;;;;20.53;100.00;99915.53;5093176;28;20066;-65
2021/08/16 02:43:44;;;;;;;;;;;;;;;20.48;100.00;99907.25;5094251;28;20093;-65
2021/08/16 02:46:28;;;;;;;11.57;8.73;;;;;;;20.49;100.00;99918.88;5096397;28;19965;-65
2021/08/16 02:49:12;;;;;;;12.88;9.73;;;;;;;20.45;100.00;99913.09;5096608;28;20051;-64
2021/08/16 02:51:56;;;;;;;14.50;8.95;;;;;;;20.43;100.00;99925.19;5096296;28;20051;-64
2021/08/16 02:54:40;;;;;;;11.02;9.00;;;;;;;20.35;100.00;99934.38;5096459;28;20123;-65
2021/08/16 02:57:24;;;;;;;11.60;9.27;;;;;;;20.32;100.00;99934.78;5097441;28;20500;-65
2021/08/16 03:00:08;;;;;;;12.25;8.77;;;;;;;20.31;100.00;99946.66;5096087;28;20092;-65
2021/08/16 03:02:52;;;;;;;15.27;9.70;;;;;;;20.27;100.00;99947.31;5096328;28;20046;-64
2021/08/16 03:05:36;;;;;;;12.60;9.40;;;;;;;20.25;100.00;99952.97;5081783;28;20042;-64
2021/08/16 03:08:20;;;;;;;14.30;9.30;;;;;;;20.26;100.00;99961.88;5081602;28;20047;-64
2021/08/16 03:11:05;;;;;;;13.93;9.75;;;;;;;20.23;100.00;99971.25;5097172;28;20050;-65
2021/08/16 03:13:48;;;;;;;13.38;8.85;;;;;;;20.19;100.00;99975.44;5096752;28;20043;-65
2021/08/16 03:16:32;;;;;;;14.10;9.07;;;;;;;20.22;100.00;99985.03;5096772;28;20136;-64
2021/08/16 03:19:16;;;;;;;14.45;9.70;;;;;;;20.24;100.00;99985.63;5096778;28;20523;-65
2021/08/16 03:22:00;;;;;;;14.32;9.70;;;;;;;20.20;100.00;99995.25;5096959;28;20090;-65
2021/08/16 03:24:44;;;;;;;15.48;9.48;;;;;;;20.29;100.00;99988.53;5096435;28;20100;-65
2021/08/16 03:27:28;;;;;;;11.60;9.27;;;;;;;20.28;100.00;100009.38;5095803;28;20058;-64
2021/08/16 03:30:13;;;;;;;;;;;;;;;20.28;100.00;100016.66;5097236;28;20055;-64
2021/08/16 03:32:57;;;;;;;11.95;8.70;;;;;;;20.32;100.00;100020.59;5096484;28;20023;-65
2021/08/16 03:35:41;;;;;;;12.43;8.40;;;;;;;20.28;100.00;100024.75;5096619;28;20516;-65
2021/08/16 03:38:26;;;;;;;13.25;8.10;;;;;;;20.31;100.00;100037.91;5096907;28;20150;-64
2021/08/16 03:41:09;;;;;;;14.57;8.63;;;;;;;20.34;100.00;100019.34;5095579;28;20051;-64
2021/08/16 03:43:53;;;;;;;12.27;8.50;;;;;;;20.31;100.00;100024.38;5080771;28;20055;-65
2021/08/16 03:46:37;;;;;;;12.07;7.78;;;;;;;20.31;100.00;100027.88;5081188;28;20051;-65
2021/08/16 03:49:21;;;;;;;11.40;7.13;;;;;;;20.37;100.00;100024.34;5096676;28;20404;-64
2021/08/16 03:52:05;;;;;;;14.45;8.05;;;;;;;20.40;100.00;100033.94;5096371;28;20046;-64
2021/08/16 03:54:49;;;;;;;11.68;7.22;;;;;;;20.35;100.00;100036.41;5093657;28;20499;-64
2021/08/16 03:57:33;;;;;;;12.90;6.93;;;;;;;20.35;100.00;100037.28;5096050;28;20101;-65
2021/08/16 04:00:17;;;;;;;12.13;7.40;;;;;;;20.35;100.00;100045.38;5095211;28;20079;-65
2021/08/16 04:03:01;;;;;;;12.48;7.43;;;;;;;20.31;100.00;100049.53;5095103;28;20078;-64
2021/08/16 04:05:46;;;;;;;10.02;7.10;;;;;;;20.37;100.00;100045.16;5094754;28;20089;-64
2021/08/16 04:08:29;;;;;;;10.32;7.10;;;;;;;20.36;100.00;100055.16;5096054;28;20433;-65
2021/08/16 04:11:13;;;;;;;;;;;;;;;20.35;100.00;100064.34;5095483;28;20051;-65
2021/08/16 04:13:57;;;;;;;10.70;7.40;;;;;;;20.36;100.00;100070.56;5094952;28;20131;-65
2021/08/16 04:16:42;;;;;;;12.15;7.60;;;;;;;20.36;100.00;100076.00;5095949;28;20551;-65
2021/08/16 04:19:26;;;;;;;13.63;7.30;;;;;;;20.35;100.00;100074.31;5095562;28;20059;-65
2021/08/16 04:22:10;;;;;;;10.98;7.05;;;;;;;20.42;100.00;100080.56;5097485;28;20046;-65
2021/08/16 04:24:54;;;;;;;11.18;7.32;;;;;;;20.43;100.00;100079.53;5094296;28;20129;-65
2021/08/16 04:27:39;;;;;;;10.20;7.65;;;;;;;20.43;100.00;100082.22;5094478;28;20120;-64
2021/08/16 04:30:23;;;;;;;12.57;6.88;;;;;;;20.43;100.00;100087.66;5094435;28;20104;-65
2021/08/16 04:33:07;;;;;;;;;;;;;;;20.38;100.00;100084.72;5095062;28;20090;-64
2021/08/16 04:35:52;;;;;;;9.57;7.28;;;;;;;20.33;100.00;100084.53;5094246;28;19966;-64
2021/08/16 04:38:37;;;;;;;11.15;7.03;;;;;;;20.33;100.00;100092.66;5094576;28;20150;-64
2021/08/16 04:41:20;;;;;;;8.38;5.85;;;;;;;20.27;100.00;100088.91;5095171;28;20070;-64
2021/08/16 04:44:04;;;;;;;10.43;6.47;;;;;;;20.38;100.00;100092.84;5094299;28;20047;-65
2021/08/16 04:46:48;;;;;;;11.05;6.18;;;;;;;20.41;100.00;100097.84;5094372;28;20055;-64
2021/08/16 04:49:32;;;;;;;9.27;6.40;;;;;;;20.37;100.00;100094.75;5095205;28;20046;-65
2021/08/16 04:52:16;;;;;;;8.50;5.60;;;;;;;20.38;100.00;100106.38;5079644;28;20047;-65
2021/08/16 04:55:00;;;;;;;14.77;5.85;;;;;;;20.35;100.00;100104.94;5093870;28;20169;-64
2021/08/16 04:57:44;;;;;;;11.90;6.20;;;;;;;20.39;100.00;100113.47;5094122;28;20047;-64
2021/08/16 05:00:29;;;;;;;9.77;7.05;;;;;;;20.40;100.00;100115.97;5093781;28;20130;-65
2021/08/16 05:03:13;;;;;;;9.07;6.22;;;;;;;20.38;100.00;100122.63;5094012;28;20043;-64
2021/08/16 05:06:04;;;;;;;7.25;5.63;;;;;;;20.30;100.00;100122.88;5094222;28;20047;-64
2021/08/16 05:08:48;;;;;;;15.85;6.28;;;;;;;20.27;100.00;100126.81;5093696;28;20085;-64
2021/08/16 05:11:32;;;;;;;11.55;5.70;;;;;;;20.29;100.00;100129.28;5093815;28;20051;-65
2021/08/16 05:14:16;;;;;;;9.38;5.60;;;;;;;20.33;100.00;100131.38;5094573;28;20174;-64
2021/08/16 05:17:00;;;;;;;10.43;5.45;;;;;;;20.29;97.48;100134.72;5095003;28;20043;-65
2021/08/16 05:19:44;;;;;;;9.25;4.75;;;;;;;20.37;95.21;100137.22;5093412;28;20051;-65
2021/08/16 05:22:28;;;;;;;8.13;4.53;;;;;;;20.40;91.28;100132.22;5078970;28;20093;-65
2021/08/16 05:25:13;;;;;;;8.27;4.20;;;;;;;20.42;84.13;100135.53;5078738;28;20417;-64
2021/08/16 05:27:57;;;;;;;6.00;3.80;;;;;;;20.44;85.50;100129.91;5094468;28;20598;-64
2021/08/16 05:30:41;;;;;;;10.55;3.42;;;;;;;20.49;84.03;100136.38;5093410;28;20413;-64
2021/08/16 05:33:25;;;;;;;4.93;3.20;;;;;;;20.56;80.11;100136.34;5094110;28;20417;-65
2021/08/16 05:36:09;;;;;;;4.13;3.15;;;;;;;20.56;76.94;100142.63;5079307;28;20561;-64
2021/08/16 05:38:53;;;;;;;7.55;3.53;;;;;;;20.55;76.17;100149.09;5093605;28;20093;-64
2021/08/16 05:41:37;;;;;;;5.55;3.13;;;;;;;20.60;76.78;100153.88;5093048;28;20567;-65
2021/08/16 05:44:20;;;;;;;8.93;3.28;;;;;;;20.63;77.79;100158.84;5093986;28;20536;-65
2021/08/16 05:47:05;;;;;;;5.60;3.38;;;;;;;20.70;77.36;100154.22;5093201;28;20515;-65
2021/08/16 05:49:49;;;;;;;7.60;3.65;;;;;;;20.84;77.78;100158.59;5093248;28;20599;-66
2021/08/16 05:52:34;;;;;;;6.43;3.40;;;;;;;20.87;76.67;100156.34;5093145;28;20051;-65
2021/08/16 05:55:19;;;;;;;6.82;3.47;;;;;;;20.91;78.12;100156.75;5093194;28;20531;-65
2021/08/16 05:58:03;;;;;;;8.05;4.03;;;;;;;21.02;78.49;100162.31;5092877;28;20050;-65
2021/08/16 06:00:46;;;;;;;6.97;3.83;;;;;;;21.16;78.91;100165.81;5093945;28;20104;-65
2021/08/16 06:03:31;;;;;;;8.05;3.50;;;;;;;21.17;79.80;100168.31;5093863;28;20043;-65
2021/08/16 06:06:14;;;;;;;9.43;3.83;;;;;;;21.11;81.74;100179.16;5093610;28;20055;-65
2021/08/16 06:09:02;;;;;;;9.77;3.95;;;;;;;21.12;82.85;100178.16;5092581;28;20077;-65
2021/08/16 06:11:46;;;;;;;13.07;4.50;;;;;;;21.20;83.60;100184.97;5078455;28;20051;-65
2021/08/16 06:14:29;;;;;;;6.13;3.60;;;;;;;21.23;84.99;100182.91;5093598;28;20546;-64
2021/08/16 06:17:13;;;;;;;7.55;4.78;;;;;;;21.19;86.71;100180.59;5093238;28;20110;-65
2021/08/16 06:19:57;;;;;;;7.40;4.05;;;;;;;21.27;86.08;100174.94;5092516;28;20123;-65
2021/08/16 06:22:41;;;;;;;;;;;;;;;21.31;85.55;100178.06;5094057;28;20063;-65
2021/08/16 06:25:25;;;;;;;9.90;3.90;;;;;;;21.16;86.03;100184.78;5093166;28;20392;-64
2021/08/16 06:28:09;;;;;;;7.15;4.22;;;;;;;21.01;85.04;100192.38;5092305;28;20047;-65
2021/08/16 06:30:53;;;;;;;6.35;3.80;;;;;;;20.89;87.25;100203.00;5093289;28;20135;-65
2021/08/16 06:33:39;;;;;;;6.57;3.70;;;;;;;20.80;85.53;100209.66;5092721;28;20054;-65
2021/08/16 06:36:23;;;;;;;7.47;3.65;;;;;;;20.83;85.79;100206.53;5092463;28;20051;-65
2021/08/16 06:39:11;;;;;;;11.80;3.65;;;;;;;20.77;83.23;100206.53;5078284;28;20101;-64
2021/08/16 06:41:56;;;;;;;7.45;3.60;;;;;;;20.78;81.71;100195.50;5093500;28;20046;-64
2021/08/16 06:44:41;;;;;;;8.88;3.90;;;;;;;20.79;83.10;100208.00;5092140;28;20050;-65
2021/08/16 06:47:24;;;;;;;8.90;4.20;;;;;;;20.88;81.40;100206.78;5092420;28;20051;-64
2021/08/16 06:50:09;;;;;;;;;;;;;;;20.93;81.25;100203.44;5092541;28;20141;-64
2021/08/16 06:52:53;;;;;;;6.03;3.33;;;;;;;21.04;79.66;100210.91;5092405;28;19919;-65
2021/08/16 06:55:37;;;;;;;9.10;2.85;;;;;;;20.85;75.58;100222.56;5093210;28;20074;-64
2021/08/16 06:58:21;;;;;;;;;;;;;;;20.75;76.72;100216.75;5078444;28;20504;-65
2021/08/16 07:01:05;;;;;;;5.10;3.10;;;;;;;20.67;76.39;100227.81;5092013;28;20438;-65
2021/08/16 07:03:49;;;;;;;;;;;;;;;20.72;78.22;100228.03;5077997;28;20124;-65
2021/08/16 07:06:33;;;;;;;5.83;3.10;;;;;;;20.76;78.44;100226.56;5092980;28;19919;-65
2021/08/16 07:09:17;;;;;;;6.10;3.30;;;;;;;21.02;77.77;100223.84;5093113;28;20097;-65
2021/08/16 07:12:00;;;;;;;4.18;2.90;;;;;;;21.23;76.67;100230.66;5093218;28;20114;-65
2021/08/16 07:14:44;;;;;;;5.78;3.20;;;;;;;21.45;75.17;100236.59;5077682;28;20065;-65
2021/08/16 07:17:28;;;;;;;5.25;3.42;;;;;;;21.58;74.49;100225.72;5092109;28;20110;-65
2021/08/16 07:20:12;;;;;;;10.85;3.75;;;;;;;21.82;73.99;100234.00;5091802;28;20109;-65
2021/08/16 07:22:56;;;;;;;6.65;3.50;;;;;;;21.98;73.67;100221.78;5091853;28;20133;-66
2021/08/16 07:25:40;;;;;;;7.95;3.13;;;;;;;22.04;73.83;100227.16;5092530;28;20132;-65
2021/08/16 07:28:29;;;;;;;6.35;3.47;;;;;;;22.20;74.17;100220.38;5092999;28;20077;-65
2021/08/16 07:31:13;;;;;;;6.88;3.67;;;;;;;22.20;75.01;100214.94;5095785;28;20459;-65
2021/08/16 07:33:57;;;;;;;8.68;3.85;;;;;;;22.21;73.86;100214.69;5096606;28;20504;-65
2021/08/16 07:36:41;;;;;;;5.70;3.70;;;;;;;22.19;75.75;100216.00;5096501;28;20499;-65
2021/08/16 07:39:25;;;;;;;7.57;4.40;;;;;;;21.92;76.29;100220.78;5095619;28;20051;-65
2021/08/16 07:42:09;;;;;;;6.45;3.80;;;;;;;21.79;78.83;100225.44;5096579;28;20504;-65
2021/08/16 07:44:53;;;;;;;11.10;3.75;;;;;;;21.90;78.59;100220.13;5096116;28;20051;-66
2021/08/16 07:47:37;;;;;;;7.57;3.58;;;;;;;21.82;76.68;100227.72;5096447;28;20051;-65
2021/08/16 07:50:21;;;;;;;7.25;3.72;;;;;;;21.91;74.11;100231.84;5096454;28;20047;-65
2021/08/16 07:53:06;;;;;;;7.05;3.28;;;;;;;22.05;74.47;100220.69;5095408;28;20130;-65
2021/08/16 07:55:50;;;;;;;5.57;3.17;;;;;;;22.25;72.47;100228.69;5096339;28;20069;-65
2021/08/16 07:58:34;;;;;;;14.00;3.38;;;;;;;22.09;70.28;100227.31;5096260;28;20055;-65
2021/08/16 08:01:18;;;;;;;10.70;3.47;;;;;;;22.47;70.01;100219.13;5095172;28;20101;-65
2021/08/16 08:04:02;;;;;;;4.22;3.20;;;;;;;22.65;69.11;100235.50;5095966;28;20063;-65
2021/08/16 08:06:46;;;;;;;8.48;3.83;;;;;;;22.65;68.72;100230.06;5095888;28;20073;-64
2021/08/16 08:09:31;;;;;;;8.65;3.03;;;;;;;23.11;67.72;100236.69;5096121;28;20069;-65
2021/08/16 08:12:15;;;;;;;7.63;3.50;;;;;;;23.04;66.71;100240.56;5096296;28;20047;-65
2021/08/16 08:14:59;;;;;;;8.75;3.20;;;;;;;23.12;65.79;100227.47;5095921;28;20412;-65
2021/08/16 08:17:43;;;;;;;;;;;;;;;22.91;65.49;100225.19;5095341;28;20101;-65
2021/08/16 08:20:27;;;;;;;11.48;2.55;;;;;;;22.68;63.79;100229.59;5080629;28;19934;-65
2021/08/16 08:23:11;;;;;;;5.65;3.08;;;;;;;22.60;64.69;100236.16;5095823;28;20116;-64
2021/08/16 08:25:55;;;;;;;6.82;2.85;;;;;;;22.73;63.85;100227.88;5094744;28;20194;-65
2021/08/16 08:28:39;;;;;;;6.65;2.70;;;;;;;22.66;60.31;100232.56;5095714;28;20069;-65
2021/08/16 08:31:23;;;;;;;4.82;2.92;;;;;;;22.70;62.50;100228.34;5094579;28;20054;-65
2021/08/16 08:34:07;;;;;;;4.93;2.97;;;;;;;22.80;60.86;100233.28;5095286;28;20058;-65
2021/08/16 08:36:51;;;;;;;11.60;3.08;;;;;;;22.73;62.91;100233.31;5080017;28;20488;-65
2021/08/16 08:39:35;;;;;;;8.05;2.85;;;;;;;22.64;64.11;100231.97;5095470;28;20047;-65
2021/08/16 08:42:28;;;;;;;7.13;2.67;;;;;;;22.43;63.80;100232.31;5094680;28;20051;-65
2021/08/16 08:45:12;;;;;;;7.68;2.67;;;;;;;22.63;63.87;100222.13;5079652;28;20074;-65
2021/08/16 08:47:55;;;;;;;4.30;2.65;;;;;;;22.64;59.65;100218.38;5094287;28;20594;-65
2021/08/16 08:50:40;;;;;;;4.35;2.38;;;;;;;22.80;59.03;100223.22;5094304;28;20120;-66
2021/08/16 08:53:24;;;;;;;4.18;2.22;;;;;;;23.01;59.28;100219.25;5094932;28;20085;-66
2021/08/16 08:56:09;;;;;;;4.10;2.20;;;;;;;23.01;57.46;100233.66;5094134;28;20405;-66
2021/08/16 08:58:54;;;;;;;6.00;2.13;;;;;;;23.23;58.39;100213.16;5095120;28;20100;-66
2021/08/16 09:01:58;;;;;;;4.25;2.40;;;;;;;23.17;56.33;100227.69;5094809;28;20051;-65
2021/08/16 09:04:55;;;;;;;5.38;2.35;;;;;;;23.36;55.51;100229.34;5093630;28;20553;-65
2021/08/16 09:07:40;;;;;;;6.18;2.70;;;;;;;23.50;55.65;100221.84;5093879;28;20089;-66
2021/08/16 09:10:25;;;;;;;8.25;2.17;;;;;;;23.55;56.38;100230.97;5093889;28;20067;-65
2021/08/16 09:13:08;;;;;;;6.07;1.80;;;;;;;23.09;54.97;100238.81;5094605;28;20047;-65
2021/08/16 09:15:55;;;;;;;3.88;1.83;;;;;;;23.03;56.25;100234.28;5093800;28;20154;-65
2021/08/16 09:18:39;;;;;;;6.32;2.50;;;;;;;23.16;56.37;100234.19;5079627;28;20466;-65
2021/08/16 09:21:40;;;;;;;4.63;2.38;;;;;;;23.70;54.53;100231.44;5093735;28;20105;-66
2021/08/16 09:24:25;;;;;;;7.35;2.30;;;;;;;24.49;52.45;100227.31;5093266;28;20132;-65
2021/08/16 09:27:10;;;;;;;6.00;2.72;;;;;;;24.63;48.88;100217.06;5093374;28;20046;-65
2021/08/16 09:29:54;;;;;;;6.55;2.50;;;;;;;25.15;49.39;100218.81;5094242;28;20074;-66
2021/08/16 09:32:40;;;;;;;8.88;2.85;;;;;;;25.40;48.43;100213.94;5094511;28;20082;-65
2021/08/16 09:35:24;;;;;;;5.18;2.30;;;;;;;25.38;47.23;100205.16;5093116;28;20039;-66
2021/08/16 09:38:08;;;;;;;5.95;2.80;;;;;;;25.27;47.85;100214.19;5079052;28;20070;-66
2021/08/16 09:40:52;;;;;;;3.67;2.28;;;;;;;25.08;48.72;100224.41;5094378;28;20469;-65
2021/08/16 09:43:36;;;;;;;5.47;2.10;;;;;;;24.73;50.00;100217.31;5093124;28;20050;-66
2021/08/16 09:46:20;;;;;;;;;;;;;;;25.03;49.46;100231.66;5094351;28;20404;-66
2021/08/16 09:49:05;;;;;;;5.30;2.38;;;;;;;24.83;48.65;100203.91;5093195;28;19923;-66
2021/08/16 09:52:03;;;;;;;4.15;2.40;;;;;;;25.05;48.50;100210.41;5093033;28;20068;-66
2021/08/16 09:54:47;;;;;;;5.00;2.20;;;;;;;25.02;48.21;100210.91;5092853;28;20397;-66
2021/08/16 09:57:32;;;;;;;7.40;2.55;;;;;;;-139.48;100.00;61774.03;5078725;28;20046;-66
2021/08/16 10:00:16;;;;;;;7.72;2.10;;;;;;;24.89;49.00;100211.16;5092753;28;20051;-65
2021/08/16 10:03:00;;;;;;;;;;;;;;;25.47;100.00;100203.72;5078957;28;20089;-66
2021/08/16 10:05:47;;;;;;;5.00;2.55;;;;;;;-139.48;100.00;61774.03;5092550;28;20284;-65
2021/08/16 10:08:35;;;;;;;5.13;2.50;;;;;;;25.47;49.35;100203.72;5092714;28;20113;-66
2021/08/16 10:11:19;;;;;;;8.25;2.63;;;;;;;27.09;43.84;100200.63;5092502;28;20051;-65
2021/08/16 10:14:04;;;;;;;8.93;2.65;;;;;;;27.69;42.53;100217.84;5078735;28;20184;-66
2021/08/16 10:16:49;;;;;;;5.88;3.15;;;;;;;;;;5092779;28;20098;-66
2021/08/16 10:19:41;;;;;;;7.00;2.72;;;;;;;29.65;36.81;100229.41;5093411;28;20078;-66
2021/08/16 10:22:25;;;;;;;11.40;2.80;;;;;;;29.18;37.75;100205.81;5094396;28;20052;-65
2021/08/16 10:25:15;;;;;;;6.05;2.53;;;;;;;29.03;37.59;100209.28;5078122;28;20516;-66
2021/08/16 10:28:02;;;;;;;5.85;3.20;;;;;;;28.95;37.60;100201.56;5093353;28;20051;-65
2021/08/16 10:30:46;;;;;;;5.82;2.40;;;;;;;29.70;36.43;100212.97;5092619;28;20051;-66
2021/08/16 10:33:42;;;;;;;7.68;2.60;;;;;;;28.87;37.52;100202.00;5092149;28;20082;-66
2021/08/16 10:36:27;;;;;;;7.28;3.22;;;;;;;26.88;41.73;100202.50;5093236;28;20090;-65
2021/08/16 10:39:11;;;;;;;6.47;2.45;;;;;;;27.06;41.75;100187.44;5093237;28;20507;-66
2021/08/16 10:42:03;;;;;;;;;;;;;;;26.96;43.33;100186.47;5093942;28;20055;-66
2021/08/16 10:44:49;;;;;;;9.65;3.00;;;;;;;27.61;41.05;100193.66;5091990;28;19953;-66
2021/08/16 10:47:34;;;;;;;7.70;3.10;;;;;;;26.81;41.83;100191.72;5078048;28;20047;-66
2021/08/16 10:50:21;;;;;;;11.18;3.10;;;;;;;27.33;40.09;100185.63;5093264;28;20417;-66
2021/08/16 10:53:07;;;;;;;6.55;2.60;;;;;;;27.77;39.73;100200.16;5092051;28;20054;-66
2021/08/16 10:55:51;;;;;;;5.68;2.45;;;;;;;26.47;42.09;100170.91;5093011;28;20038;-65
2021/08/16 10:58:36;;;;;;;9.63;3.13;;;;;;;26.49;42.76;100178.88;5092544;28;20097;-66
2021/08/16 11:01:36;;;;;;;7.40;2.92;;;;;;;24.67;46.14;100186.38;5091940;28;20527;-65
2021/08/16 11:04:46;;;;;;;5.47;2.35;;;;;;;23.85;49.32;100184.78;5079061;28;20561;-65
2021/08/16 11:07:30;;;;;;;6.35;3.08;;;;;;;23.62;50.56;100174.56;5081887;28;20086;-65
2021/08/16 11:10:14;;;;;;;6.20;2.88;;;;;;;23.49;51.79;100201.97;5082187;28;20047;-65
2021/08/16 11:12:58;;;;;;;4.82;2.72;;;;;;;23.12;52.38;100194.03;5096047;28;20519;-65
2021/08/16 11:15:43;;;;;;;6.30;2.88;;;;;;;23.30;53.25;100199.47;5096993;28;20050;-65
2021/08/16 11:18:26;;;;;;;7.90;2.67;;;;;;;23.73;51.92;100181.97;5095906;28;20397;-66
2021/08/16 11:21:10;;;;;;;5.20;2.65;;;;;;;23.73;51.92;100181.97;5095863;28;20050;-66
2021/08/16 11:23:59;;;;;;;7.20;3.40;;;;;;;25.07;49.29;100179.09;5095633;28;20051;-65
2021/08/16 11:26:47;;;;;;;6.60;2.90;;;;;;;25.54;47.02;100180.66;5095861;28;20416;-65
2021/08/16 11:29:31;;;;;;;5.97;2.67;;;;;;;27.14;43.68;100169.78;5095676;28;20051;-66
2021/08/16 11:32:21;;;;;;;5.45;2.60;;;;;;;27.83;42.73;100179.97;5095719;28;20046;-65
2021/08/16 11:35:07;;;;;;;8.88;2.75;;;;;;;27.77;41.40;100198.28;5095703;28;20495;-65
2021/08/16 11:37:50;;;;;;;3.67;2.90;;;;;;;-139.48;100.00;61774.03;5095379;28;20089;-66
2021/08/16 11:40:35;;;;;;;6.70;3.08;;;;;;;-139.48;100.00;61774.03;5096520;28;20427;-66
2021/08/16 11:43:25;;;;;;;4.40;2.60;;;;;;;-139.48;100.00;61774.03;5095483;28;20051;-65
2021/08/16 11:46:18;;;;;;;5.28;2.67;;;;;;;-139.48;100.00;61774.03;5095254;28;20490;-65
2021/08/16 11:49:07;;;;;;;7.70;2.63;;;;;;;-139.48;100.00;61774.03;5095402;28;20055;-65
2021/08/16 11:51:52;;;;;;;4.78;2.63;;;;;;;-139.48;100.00;61774.03;5095361;28;20043;-65
2021/08/16 11:54:36;;;;;;;5.88;2.88;;;;;;;-139.48;100.00;61774.03;5095194;28;20046;-65
2021/08/16 11:57:24;;;;;;;8.68;2.70;;;;;;;-139.48;100.00;61774.03;5095054;28;20516;-64
2021/08/16 12:00:10;;;;;;;3.92;2.45;;;;;;;-139.48;100.00;61774.03;5096262;28;20050;-65
2021/08/16 12:02:57;;;;;;;5.93;3.08;;;;;;;-139.48;100.00;61774.03;5096321;28;20054;-65
2021/08/16 12:05:41;;;;;;;5.25;2.70;;;;;;;-139.48;100.00;61774.03;5095170;28;20174;-65
2021/08/16 12:08:25;;;;;;;5.63;3.25;;;;;;;-139.48;100.00;61774.03;5095053;28;20094;-65
2021/08/16 12:11:13;;;;;;;6.68;3.47;;;;;;;-139.48;100.00;61774.03;5094857;28;20515;-65
2021/08/16 12:13:59;;;;;;;4.20;2.80;;;;;;;-139.48;100.00;61774.03;5096081;28;20098;-65
2021/08/16 12:16:51;;;;;;;8.05;3.00;;;;;;;-139.48;100.00;61774.03;5093842;28;20058;-65
2021/08/16 12:19:35;;;;;;;8.07;3.30;;;;;;;-139.48;100.00;61774.03;5080640;28;20186;-65
2021/08/16 12:22:19;;;;;;;7.28;2.88;;;;;;;-139.48;100.00;61774.03;5094551;28;20404;-65
2021/08/16 12:25:08;;;;;;;9.77;3.70;;;;;;;-139.48;100.00;61774.03;5079937;28;20047;-64
2021/08/16 12:28:00;;;;;;;6.82;2.90;;;;;;;-139.48;100.00;61774.03;5094996;28;20050;-65
2021/08/16 12:30:44;;;;;;;4.82;2.83;;;;;;;-139.48;100.00;61774.03;5080178;28;20051;-65
2021/08/16 12:33:28;;;;;;;6.97;3.25;;;;;;;-139.48;100.00;61774.03;5094496;28;20682;-65
2021/08/16 12:36:12;;;;;;;;;;;;;;;-139.48;100.00;61774.03;5094991;28;20066;-64
2021/08/16 12:39:01;;;;;;;5.95;3.08;;;;;;;-139.48;100.00;61774.03;5094335;28;19919;-65
2021/08/16 12:41:45;;;;;;;6.50;3.10;;;;;;;-139.48;100.00;61774.03;5095083;28;20047;-65
2021/08/16 12:44:30;;;;;;;6.25;3.15;;;;;;;-139.48;100.00;61774.03;5079760;28;20051;-65